Time;durP1;ratioP1;P1;durP2;ratioP2;P2;SDS_P1;SDS_P2;PMS_P1;PMS_P2;Temp;Humidity;BMP_temperature;BMP_pressure;BME280_temperature;BME280_humidity;BME280_pressure;Samples;Min_cycle;Max_cycle;Signal;HPM_P1;HPM_P2
2023/05/16 00:01:01;;;;;;;0.50;0.50;;;;;;;16.07;100.00;99257.06;5050554;28;20204;-66
2023/05/16 00:03:29;;;;;;;0.50;0.50;;;;;;;16.06;100.00;99251.03;5050716;28;20205;-66
2023/05/16 00:05:58;;;;;;;0.60;0.60;;;;;;;16.04;100.00;99252.88;5050406;28;20197;-66
2023/05/16 00:08:25;;;;;;;0.57;0.57;;;;;;;15.95;100.00;99247.38;5051046;28;20197;-66
2023/05/16 00:10:52;;;;;;;0.60;0.60;;;;;;;15.97;100.00;99266.22;5050656;28;20259;-66
2023/05/16 00:13:21;;;;;;;0.80;0.80;;;;;;;15.97;100.00;99261.06;5050407;28;20208;-66
2023/05/16 00:15:48;;;;;;;0.40;0.40;;;;;;;15.95;100.00;99257.72;5050544;28;20200;-66
2023/05/16 00:18:15;;;;;;;0.60;0.60;;;;;;;15.95;100.00;99252.56;5050177;28;20671;-66
2023/05/16 00:20:42;;;;;;;0.40;0.40;;;;;;;15.90;100.00;99242.44;5050413;28;20648;-66
2023/05/16 00:23:11;;;;;;;0.60;0.60;;;;;;;15.87;100.00;99249.53;5050637;28;20196;-66
2023/05/16 00:25:38;;;;;;;0.80;0.80;;;;;;;15.77;100.00;99239.69;5050395;28;20199;-66
2023/05/16 00:28:05;;;;;;;0.50;0.50;;;;;;;15.77;100.00;99229.38;5050563;28;20294;-66
2023/05/16 00:30:32;;;;;;;0.53;0.53;;;;;;;15.87;100.00;99244.38;5049945;28;20192;-66
2023/05/16 00:32:58;;;;;;;0.47;0.47;;;;;;;15.85;100.00;99251.38;5050437;28;20274;-66
2023/05/16 00:35:25;;;;;;;1.17;1.17;;;;;;;15.84;100.00;99249.72;5049734;28;20726;-66
2023/05/16 00:37:52;;;;;;;0.80;0.80;;;;;;;15.82;100.00;99243.78;5050514;28;20640;-66
2023/05/16 00:40:21;;;;;;;0.67;0.67;;;;;;;15.82;100.00;99251.56;5049938;28;20203;-66
2023/05/16 00:42:47;;;;;;;0.50;0.50;;;;;;;15.81;100.00;99245.53;5049516;28;20295;-66
2023/05/16 00:45:15;;;;;;;0.47;0.47;;;;;;;15.82;100.00;99251.56;5049724;28;20204;-66
2023/05/16 00:47:41;;;;;;;0.60;0.60;;;;;;;15.84;100.00;99240.19;5049809;28;20207;-66
2023/05/16 00:50:09;;;;;;;0.93;0.87;;;;;;;15.84;100.00;99239.38;5049654;28;20255;-66
2023/05/16 00:52:36;;;;;;;0.50;0.50;;;;;;;15.81;100.00;99230.03;5049941;28;20239;-66
2023/05/16 00:55:03;;;;;;;0.80;0.80;;;;;;;15.79;100.00;99231.03;5050181;28;20217;-66
2023/05/16 00:57:32;;;;;;;0.50;0.50;;;;;;;15.74;100.00;99229.53;5049763;28;20224;-66
2023/05/16 00:59:59;;;;;;;0.63;0.63;;;;;;;15.77;100.00;99232.88;5049543;28;20263;-66
2023/05/16 01:02:27;;;;;;;0.67;0.67;;;;;;;15.66;100.00;99213.63;5049361;28;20285;-66
2023/05/16 01:04:55;;;;;;;1.27;1.23;;;;;;;15.71;100.00;99224.53;5048684;28;20212;-66
2023/05/16 01:07:22;;;;;;;0.50;0.50;;;;;;;15.70;100.00;99225.44;5049677;28;20205;-66
2023/05/16 01:09:49;;;;;;;0.50;0.50;;;;;;;15.72;100.00;99218.44;5049570;28;20270;-66
2023/05/16 01:12:23;;;;;;;3.20;0.80;;;;;;;15.65;100.00;99224.03;5049020;28;20230;-66
2023/05/16 01:15:02;;;;;;;0.77;0.77;;;;;;;15.57;100.00;99215.84;5049827;28;20254;-66
2023/05/16 01:17:38;;;;;;;1.03;1.03;;;;;;;15.61;100.00;99223.34;5049857;28;20227;-66
2023/05/16 01:20:14;;;;;;;0.83;0.83;;;;;;;15.60;100.00;99220.84;5049360;28;20302;-66
2023/05/16 01:22:52;;;;;;;0.63;0.63;;;;;;;15.57;100.00;99214.09;5046401;28;20208;-66
2023/05/16 01:25:38;;;;;;;0.67;0.67;;;;;;;15.51;100.00;99209.25;5049015;28;20198;-66
2023/05/16 01:28:07;;;;;;;0.50;0.50;;;;;;;15.48;100.00;99211.16;5048829;28;20224;-66
2023/05/16 01:30:38;;;;;;;0.77;0.77;;;;;;;15.47;100.00;99215.47;5044969;28;20210;-66
2023/05/16 01:33:04;;;;;;;0.50;0.50;;;;;;;15.42;100.00;99208.88;5049058;28;20200;-66
2023/05/16 01:35:31;;;;;;;0.50;0.50;;;;;;;15.45;100.00;99206.97;5048913;28;20212;-66
2023/05/16 01:38:06;;;;;;;0.53;0.53;;;;;;;15.44;100.00;99205.31;5049646;28;20241;-66
2023/05/16 01:40:38;;;;;;;0.50;0.50;;;;;;;15.42;100.00;99199.38;5048524;28;20199;-66
2023/05/16 01:43:25;;;;;;;0.57;0.57;;;;;;;15.41;100.00;99200.28;5049189;28;20258;-66
2023/05/16 01:45:57;;;;;;;0.80;0.80;;;;;;;15.37;100.00;99193.63;5049474;28;20204;-66
2023/05/16 01:48:30;;;;;;;0.57;0.57;;;;;;;15.37;100.00;99195.38;5049141;28;20635;-66
2023/05/16 01:51:00;;;;;;;0.43;0.43;;;;;;;15.32;100.00;99189.59;5049406;28;20697;-66
2023/05/16 01:53:33;;;;;;;0.70;0.70;;;;;;;15.32;100.00;99190.44;5049455;28;20771;-66
2023/05/16 01:56:02;;;;;;;0.50;0.50;;;;;;;15.31;100.00;99182.78;5049263;28;20729;-66
2023/05/16 01:58:33;;;;;;;0.77;0.77;;;;;;;15.30;100.00;99184.53;5049314;28;20213;-66
2023/05/16 02:01:02;;;;;;;1.03;1.03;;;;;;;15.30;100.00;99181.09;5048916;28;20206;-66
2023/05/16 02:03:28;;;;;;;0.90;0.90;;;;;;;15.27;100.00;99169.19;5049142;28;20263;-66
2023/05/16 02:05:55;;;;;;;1.00;1.00;;;;;;;15.21;100.00;99166.94;5048949;28;20227;-66
2023/05/16 02:08:22;;;;;;;0.70;0.70;;;;;;;15.14;100.00;99160.44;5049103;28;20205;-66
2023/05/16 02:10:48;;;;;;;0.60;0.60;;;;;;;15.09;100.00;99162.41;5049514;28;20193;-65
2023/05/16 02:13:15;;;;;;;0.60;0.60;;;;;;;15.05;100.00;99150.59;5048641;28;20305;-66
2023/05/16 02:15:43;;;;;;;0.70;0.70;;;;;;;15.05;100.00;99160.91;5048805;28;20231;-66
2023/05/16 02:18:11;;;;;;;0.93;0.93;;;;;;;15.08;100.00;99169.34;5049089;28;20244;-66
2023/05/16 02:20:38;;;;;;;0.87;0.87;;;;;;;15.09;100.00;99177.88;5049521;28;20672;-66
2023/05/16 02:23:05;;;;;;;0.47;0.47;;;;;;;15.09;100.00;99177.88;5048546;28;20291;-66
2023/05/16 02:25:31;;;;;;;0.50;0.50;;;;;;;15.09;100.00;99167.56;5050132;28;20285;-66
2023/05/16 02:27:58;;;;;;;0.53;0.53;;;;;;;15.08;100.00;99165.91;5052168;28;20300;-66
2023/05/16 02:30:25;;;;;;;1.30;1.30;;;;;;;15.06;100.00;99163.41;5052226;28;20225;-66
2023/05/16 02:32:53;;;;;;;0.70;0.70;;;;;;;15.06;100.00;99159.97;5052805;28;20212;-66
2023/05/16 02:35:20;;;;;;;0.40;0.40;;;;;;;15.06;100.00;99147.91;5052660;28;20208;-66
2023/05/16 02:37:47;;;;;;;1.03;1.03;;;;;;;15.00;100.00;99155.13;5052599;28;20254;-66
2023/05/16 02:40:14;;;;;;;1.13;1.13;;;;;;;14.98;100.00;99150.06;5051949;28;20204;-66
2023/05/16 02:42:41;;;;;;;1.67;1.57;;;;;;;14.97;100.00;99152.72;5052103;28;20208;-66
2023/05/16 02:45:08;;;;;;;0.60;0.60;;;;;;;14.94;100.00;99142.56;5051759;28;20208;-66
2023/05/16 02:47:35;;;;;;;0.87;0.87;;;;;;;14.83;100.00;99131.97;5052534;28;20199;-66
2023/05/16 02:50:03;;;;;;;0.67;0.67;;;;;;;14.89;100.00;99139.38;5052336;28;20262;-66
2023/05/16 02:52:30;;;;;;;0.70;0.70;;;;;;;14.88;100.00;99140.28;5052511;28;20200;-66
2023/05/16 02:54:57;;;;;;;0.40;0.40;;;;;;;14.83;100.00;99137.94;5052312;28;20197;-66
2023/05/16 02:57:23;;;;;;;0.50;0.50;;;;;;;14.86;100.00;99145.56;5051506;28;20711;-66
2023/05/16 02:59:50;;;;;;;2.03;1.17;;;;;;;14.86;100.00;99155.03;5052710;28;20679;-66
2023/05/16 03:02:17;;;;;;;0.97;0.97;;;;;;;14.85;100.00;99158.53;5052216;28;20208;-66
2023/05/16 03:04:43;;;;;;;0.90;0.90;;;;;;;14.86;100.00;99171.38;5050189;28;20629;-66
2023/05/16 03:07:11;;;;;;;0.30;0.30;;;;;;;14.87;100.00;99179.91;5051902;28;20204;-66
2023/05/16 03:09:38;;;;;;;0.80;0.80;;;;;;;14.87;100.00;99177.31;5051206;28;20259;-66
2023/05/16 03:12:06;;;;;;;0.50;0.50;;;;;;;14.64;100.00;99135.47;5052140;28;20679;-66
2023/05/16 03:14:32;;;;;;;0.60;0.60;;;;;;;14.80;100.00;99166.47;5051649;28;20196;-66
2023/05/16 03:16:59;;;;;;;0.40;0.40;;;;;;;14.84;100.00;99178.31;5052198;28;20317;-66
2023/05/16 03:19:26;;;;;;;1.33;1.23;;;;;;;14.85;100.00;99179.16;5049574;28;20209;-66
2023/05/16 03:21:52;;;;;;;1.60;1.60;;;;;;;14.85;100.00;99179.16;5051073;28;20286;-66
2023/05/16 03:24:21;;;;;;;1.27;1.27;;;;;;;14.86;100.00;99181.69;5051684;28;20200;-66
2023/05/16 03:26:48;;;;;;;0.50;0.50;;;;;;;14.82;100.00;99175.00;5051448;28;20228;-66
2023/05/16 03:29:15;;;;;;;0.80;0.80;;;;;;;14.85;100.00;99168.84;5051928;28;20207;-66
2023/05/16 03:31:42;;;;;;;2.33;0.60;;;;;;;14.86;100.00;99178.25;5051619;28;20746;-66
2023/05/16 03:34:09;;;;;;;0.57;0.57;;;;;;;14.86;100.00;99170.53;5051090;28;20293;-66
2023/05/16 03:36:35;;;;;;;0.40;0.40;;;;;;;14.85;100.00;99168.84;5051030;28;20204;-66
2023/05/16 03:39:02;;;;;;;0.80;0.80;;;;;;;14.85;100.00;99158.53;5051659;28;20193;-66
2023/05/16 03:41:30;;;;;;;0.93;0.93;;;;;;;14.85;100.00;99163.69;5051396;28;20192;-66
2023/05/16 03:43:57;;;;;;;1.17;1.17;;;;;;;14.84;100.00;99177.50;5051122;28;20203;-66
2023/05/16 03:46:24;;;;;;;0.60;0.60;;;;;;;14.89;100.00;99188.44;5051237;28;20205;-66
2023/05/16 03:48:50;;;;;;;1.70;1.70;;;;;;;14.88;100.00;99189.34;5051047;28;20193;-66
2023/05/16 03:51:17;;;;;;;0.50;0.50;;;;;;;14.89;100.00;99193.59;5049796;28;20205;-66
2023/05/16 03:53:44;;;;;;;0.47;0.47;;;;;;;14.90;100.00;99178.00;5050934;28;20246;-65
2023/05/16 03:56:10;;;;;;;1.07;1.07;;;;;;;14.91;100.00;99190.00;5051000;28;20210;-66
2023/05/16 03:58:38;;;;;;;0.60;0.60;;;;;;;14.91;100.00;99181.44;5050729;28;20325;-66
2023/05/16 04:01:05;;;;;;;1.13;1.13;;;;;;;14.95;100.00;99181.22;5050720;28;20204;-66
2023/05/16 04:03:32;;;;;;;0.70;0.70;;;;;;;14.92;100.00;99176.19;5050943;28;20204;-66
2023/05/16 04:05:59;;;;;;;0.40;0.40;;;;;;;14.93;100.00;99171.84;5051175;28;20265;-66
2023/05/16 04:08:26;;;;;;;0.90;0.90;;;;;;;14.92;100.00;99165.03;5051304;28;20250;-66
2023/05/16 04:10:53;;;;;;;0.53;0.53;;;;;;;14.91;100.00;99163.38;5051474;28;20211;-66
2023/05/16 04:13:20;;;;;;;0.53;0.53;;;;;;;14.78;100.00;99157.16;5051157;28;20202;-66
2023/05/16 04:15:48;;;;;;;0.50;0.50;;;;;;;14.69;100.00;99164.47;5051147;28;20209;-66
2023/05/16 04:18:14;;;;;;;0.47;0.47;;;;;;;14.76;100.00;99164.16;5050245;28;20221;-66
2023/05/16 04:20:42;;;;;;;0.33;0.33;;;;;;;14.84;100.00;99168.00;5050798;28;20201;-66
2023/05/16 04:23:10;;;;;;;0.60;0.60;;;;;;;14.90;100.00;99161.69;5050584;28;20200;-66
2023/05/16 04:25:38;;;;;;;0.40;0.40;;;;;;;14.92;100.00;99154.72;5050785;28;20200;-66
2023/05/16 04:28:05;;;;;;;0.70;0.70;;;;;;;15.01;100.00;99151.66;5050093;28;20250;-66
2023/05/16 04:30:32;;;;;;;0.43;0.43;;;;;;;15.11;100.00;99160.59;5050013;28;20288;-66
2023/05/16 04:33:01;;;;;;;0.77;0.77;;;;;;;15.20;100.00;99154.94;5050555;28;20576;-66
2023/05/16 04:35:28;;;;;;;3.10;1.00;;;;;;;15.29;100.00;99163.94;5050775;28;20201;-66
2023/05/16 04:37:54;;;;;;;0.60;0.60;;;;;;;15.23;100.00;99165.09;5050839;28;20244;-66
2023/05/16 04:40:21;;;;;;;0.50;0.50;;;;;;;15.28;100.00;99170.03;5049402;28;20266;-66
2023/05/16 04:42:48;;;;;;;0.97;0.97;;;;;;;15.41;100.00;99179.63;5050629;28;20251;-66
2023/05/16 04:45:15;;;;;;;0.77;0.77;;;;;;;15.54;100.00;99183.25;5049718;28;20240;-66
2023/05/16 04:47:42;;;;;;;0.90;0.90;;;;;;;15.55;100.00;99177.16;5048020;28;20235;-66
2023/05/16 04:50:10;;;;;;;0.70;0.70;;;;;;;15.63;100.00;99177.59;5049484;28;20231;-66
2023/05/16 04:52:38;;;;;;;0.80;0.80;;;;;;;15.72;100.00;99178.84;5045663;28;20672;-66
2023/05/16 04:55:05;;;;;;;0.70;0.70;;;;;;;15.78;100.00;99183.69;5049944;28;20208;-66
2023/05/16 04:57:32;;;;;;;0.70;0.70;;;;;;;15.83;100.00;99178.28;5048888;28;20646;-66
2023/05/16 04:59:58;;;;;;;0.60;0.60;;;;;;;15.88;100.00;99184.00;5050024;28;20273;-66
2023/05/16 05:02:26;;;;;;;0.60;0.60;;;;;;;15.83;100.00;99180.84;5049017;28;20303;-66
2023/05/16 05:04:52;;;;;;;0.93;0.93;;;;;;;15.86;100.00;99191.88;5049264;28;20242;-66
2023/05/16 05:07:20;;;;;;;0.73;0.73;;;;;;;15.95;100.00;99195.69;5046080;28;20212;-66
2023/05/16 05:09:47;;;;;;;0.50;0.50;;;;;;;15.97;100.00;99178.31;5044847;28;20208;-66
2023/05/16 05:12:14;;;;;;;0.40;0.40;;;;;;;16.14;100.00;99188.56;5044942;28;20223;-67
2023/05/16 05:14:41;;;;;;;0.50;0.50;;;;;;;16.26;100.00;99190.44;5048368;28;20658;-66
2023/05/16 05:17:07;;;;;;;0.60;0.60;;;;;;;16.31;100.00;99193.63;5049156;28;20734;-66
2023/05/16 05:19:34;;;;;;;2.23;2.23;;;;;;;16.29;100.00;99190.28;5048953;28;20749;-66
2023/05/16 05:22:01;;;;;;;1.23;1.23;;;;;;;16.32;100.00;99189.28;5050010;28;20201;-66
2023/05/16 05:24:29;;;;;;;0.70;0.70;;;;;;;16.29;100.00;99191.13;5049615;28;20262;-66
2023/05/16 05:26:56;;;;;;;0.57;0.57;;;;;;;16.25;100.00;99194.78;5046798;28;20719;-66
2023/05/16 05:29:23;;;;;;;1.50;1.50;;;;;;;16.26;100.00;99188.72;5049446;28;20203;-66
2023/05/16 05:31:49;;;;;;;0.47;0.47;;;;;;;16.20;100.00;99195.97;5049330;28;20201;-66
2023/05/16 05:34:16;;;;;;;1.07;1.07;;;;;;;16.09;100.00;99188.81;5048946;28;20232;-66
2023/05/16 05:36:43;;;;;;;0.97;0.97;;;;;;;16.09;100.00;99195.75;5049871;28;20729;-66
2023/05/16 05:39:10;;;;;;;0.50;0.50;;;;;;;16.14;100.00;99201.50;5049716;28;20216;-66
2023/05/16 05:41:38;;;;;;;0.60;0.60;;;;;;;16.16;100.00;99178.97;5048950;28;20205;-66
2023/05/16 05:44:05;;;;;;;0.60;0.60;;;;;;;16.15;100.00;99182.47;5048904;28;20230;-66
2023/05/16 05:46:33;;;;;;;0.97;0.97;;;;;;;16.17;100.00;99175.47;5049324;28;20620;-66
2023/05/16 05:49:00;;;;;;;0.60;0.60;;;;;;;16.18;100.00;99161.63;5049217;28;20656;-66
2023/05/16 05:51:27;;;;;;;0.83;0.70;;;;;;;16.27;100.00;99168.84;5049403;28;20262;-66
2023/05/16 05:53:54;;;;;;;0.40;0.40;;;;;;;16.39;100.00;99164.72;5047574;28;20211;-66
2023/05/16 05:56:23;;;;;;;0.43;0.43;;;;;;;16.37;100.00;99167.41;5047636;28;21887;-66
2023/05/16 05:58:51;;;;;;;1.27;1.27;;;;;;;16.31;100.00;99151.41;5048219;28;20223;-66
2023/05/16 06:01:19;;;;;;;1.17;1.17;;;;;;;16.34;100.00;99188.28;5052514;28;20207;-66
2023/05/16 06:03:46;;;;;;;0.70;0.70;;;;;;;16.22;100.00;99176.03;5051645;28;20204;-65
2023/05/16 06:06:14;;;;;;;0.87;0.87;;;;;;;16.25;100.00;99171.50;5048908;28;20232;-64
2023/05/16 06:08:41;;;;;;;0.40;0.40;;;;;;;16.30;100.00;99166.09;5052529;28;20200;-63
2023/05/16 06:11:07;;;;;;;0.50;0.50;;;;;;;16.23;100.00;99170.78;5049667;28;20205;-66
2023/05/16 06:13:34;;;;;;;0.47;0.47;;;;;;;16.23;100.00;99162.19;5046382;28;20231;-67
2023/05/16 06:16:02;;;;;;;0.40;0.40;;;;;;;16.29;100.00;99164.41;5050268;28;20264;-66
2023/05/16 06:18:29;;;;;;;0.60;0.60;;;;;;;16.34;100.00;99196.03;5050966;28;20212;-68
2023/05/16 06:20:56;;;;;;;0.40;0.40;;;;;;;16.40;100.00;99182.75;5051948;28;20283;-67
2023/05/16 06:23:23;;;;;;;0.53;0.53;;;;;;;16.27;100.00;99171.44;5051329;28;20212;-67
2023/05/16 06:25:51;;;;;;;0.60;0.60;;;;;;;16.26;100.00;99177.53;5051239;28;20205;-66
2023/05/16 06:28:17;;;;;;;0.80;0.80;;;;;;;16.33;100.00;99196.94;5049817;28;20228;-66
2023/05/16 06:30:45;;;;;;;0.60;0.60;;;;;;;16.31;100.00;99203.13;5051414;28;20213;-67
2023/05/16 06:33:14;;;;;;;0.83;0.83;;;;;;;16.23;100.00;99154.41;5047902;28;20572;-67
2023/05/16 06:35:40;;;;;;;0.40;0.40;;;;;;;16.32;100.00;99164.22;5052269;28;20545;-66
2023/05/16 06:38:07;;;;;;;0.67;0.67;;;;;;;16.34;100.00;99165.00;5051518;28;20278;-66
2023/05/16 06:40:34;;;;;;;0.70;0.70;;;;;;;16.39;100.00;99165.56;5050232;28;20259;-66
2023/05/16 06:43:01;;;;;;;0.93;0.93;;;;;;;16.37;100.00;99182.09;5051208;28;20212;-66
2023/05/16 06:45:27;;;;;;;0.70;0.70;;;;;;;16.31;100.00;99170.34;5051552;28;20262;-66
2023/05/16 06:47:55;;;;;;;0.70;0.70;;;;;;;16.31;100.00;99144.47;5052526;28;20958;-66
2023/05/16 06:50:24;;;;;;;0.43;0.43;;;;;;;16.29;100.00;99154.06;5052632;28;20204;-68
2023/05/16 06:52:50;;;;;;;0.47;0.47;;;;;;;16.33;100.00;99155.56;5051008;28;20695;-66
2023/05/16 06:55:17;;;;;;;0.50;0.50;;;;;;;16.29;100.00;99134.22;5054801;28;20654;-66
2023/05/16 06:57:44;;;;;;;0.40;0.40;;;;;;;16.34;100.00;99140.88;5051965;28;20278;-66
2023/05/16 07:00:11;;;;;;;0.53;0.53;;;;;;;16.28;100.00;99142.06;5052764;28;20292;-66
2023/05/16 07:02:38;;;;;;;0.40;0.40;;;;;;;16.29;100.00;99159.25;5053006;28;20197;-66
2023/05/16 07:05:06;;;;;;;0.50;0.50;;;;;;;16.29;100.00;99154.06;5052159;28;20254;-66
2023/05/16 07:07:35;;;;;;;0.40;0.40;;;;;;;16.07;100.00;99122.59;5052700;28;20200;-66
2023/05/16 07:10:02;;;;;;;0.60;0.60;;;;;;;16.30;100.00;99158.31;5053378;28;20204;-66
2023/05/16 07:12:29;;;;;;;0.73;0.73;;;;;;;16.35;100.00;99143.34;5050850;28;20259;-66
2023/05/16 07:14:55;;;;;;;0.70;0.70;;;;;;;16.30;100.00;99142.81;5053076;28;20212;-66
2023/05/16 07:17:22;;;;;;;0.60;0.60;;;;;;;16.32;100.00;99133.19;5052241;28;20256;-66
2023/05/16 07:19:50;;;;;;;0.47;0.47;;;;;;;16.37;100.00;99146.72;5052565;28;20646;-66
2023/05/16 07:22:16;;;;;;;1.03;1.03;;;;;;;16.35;100.00;99122.66;5050348;28;20200;-66
2023/05/16 07:24:44;;;;;;;0.60;0.60;;;;;;;16.50;100.00;99126.97;5052227;28;20204;-65
2023/05/16 07:27:12;;;;;;;0.90;0.90;;;;;;;16.46;100.00;99125.47;5050129;28;20232;-65
2023/05/16 07:29:39;;;;;;;0.70;0.70;;;;;;;16.50;100.00;99132.16;5053626;28;20576;-66
2023/05/16 07:32:06;;;;;;;0.50;0.50;;;;;;;16.63;100.00;99125.34;5052376;28;20212;-66
2023/05/16 07:34:33;;;;;;;0.50;0.50;;;;;;;16.74;100.00;99122.94;5054920;28;20212;-66
2023/05/16 07:37:00;;;;;;;0.80;0.80;;;;;;;16.85;100.00;99121.47;5051425;28;20639;-66
2023/05/16 07:39:26;;;;;;;0.40;0.40;;;;;;;16.94;100.00;99126.09;5055629;28;20655;-66
2023/05/16 07:41:55;;;;;;;0.40;0.40;;;;;;;16.99;100.00;99121.50;5051453;28;20223;-66
2023/05/16 07:44:22;;;;;;;0.53;0.53;;;;;;;17.09;100.00;99138.13;5052820;28;20627;-66
2023/05/16 07:46:49;;;;;;;0.90;0.90;;;;;;;17.20;100.00;99128.78;5052672;28;20215;-66
2023/05/16 07:49:16;;;;;;;0.70;0.70;;;;;;;17.15;100.00;99124.81;5052083;28;20270;-66
2023/05/16 07:51:43;;;;;;;0.67;0.67;;;;;;;17.27;100.00;99127.47;5053951;28;20258;-66
2023/05/16 07:54:09;;;;;;;0.60;0.60;;;;;;;17.34;100.00;99125.34;5052594;28;20200;-66
2023/05/16 07:56:36;;;;;;;0.67;0.67;;;;;;;17.20;100.00;99122.75;5048574;28;20240;-66
2023/05/16 07:59:05;;;;;;;0.80;0.80;;;;;;;17.23;100.00;99109.63;5048221;28;20267;-66
2023/05/16 08:01:32;;;;;;;0.60;0.60;;;;;;;17.29;100.00;99114.41;5049490;28;20198;-66
2023/05/16 08:03:58;;;;;;;0.50;0.50;;;;;;;17.44;100.00;99116.06;5049701;28;20282;-66
2023/05/16 08:06:25;;;;;;;0.80;0.80;;;;;;;17.45;100.00;99102.16;5049994;28;20676;-66
2023/05/16 08:08:52;;;;;;;0.60;0.60;;;;;;;17.51;100.00;99106.97;5050547;28;20206;-66
2023/05/16 08:11:21;;;;;;;0.53;0.53;;;;;;;17.49;100.00;99098.47;5050412;28;20200;-66
2023/05/16 08:13:47;;;;;;;0.63;0.63;;;;;;;17.52;100.00;99107.78;5048859;28;20625;-66
2023/05/16 08:16:16;;;;;;;0.80;0.80;;;;;;;17.59;100.00;99104.75;5049029;28;20208;-66
2023/05/16 08:18:42;;;;;;;0.90;0.90;;;;;;;17.62;100.00;99112.34;5049520;28;20228;-66
2023/05/16 08:21:09;;;;;;;0.40;0.40;;;;;;;17.72;100.00;99113.44;5050405;28;20265;-66
2023/05/16 08:23:36;;;;;;;0.57;0.57;;;;;;;17.61;100.00;99097.72;5032509;28;20383;-66
2023/05/16 08:26:03;;;;;;;0.60;0.60;;;;;;;17.79;100.00;99106.94;5050954;28;20270;-66
2023/05/16 08:28:30;;;;;;;0.90;0.90;;;;;;;17.89;100.00;99106.31;5049197;28;20259;-66
2023/05/16 08:30:56;;;;;;;0.60;0.60;;;;;;;18.01;100.00;99102.94;5050076;28;20209;-66
2023/05/16 08:33:24;;;;;;;0.60;0.60;;;;;;;18.08;100.00;99102.44;5044186;28;20763;-66
2023/05/16 08:35:52;;;;;;;0.40;0.40;;;;;;;18.18;100.00;99097.47;5051427;28;20209;-66
2023/05/16 08:38:19;;;;;;;0.67;0.67;;;;;;;18.17;100.00;99098.41;5050201;28;20264;-66
2023/05/16 08:40:46;;;;;;;0.77;0.77;;;;;;;18.30;100.00;99109.63;5051031;28;20197;-66
2023/05/16 08:43:13;;;;;;;0.47;0.47;;;;;;;18.51;100.00;99100.47;5049754;28;20202;-65
2023/05/16 08:45:41;;;;;;;0.60;0.60;;;;;;;18.73;100.00;99100.69;5049379;28;20296;-66
2023/05/16 08:48:10;;;;;;;0.50;0.50;;;;;;;18.82;100.00;99084.47;5050369;28;20216;-66
2023/05/16 08:50:38;;;;;;;0.90;0.90;;;;;;;18.83;100.00;99074.91;5050371;28;20200;-65
2023/05/16 08:53:07;;;;;;;0.77;0.77;;;;;;;18.78;100.00;99095.97;5047793;28;20260;-65
2023/05/16 08:55:35;;;;;;;0.40;0.40;;;;;;;18.68;100.00;99087.16;5047738;28;20638;-66
2023/05/16 08:58:03;;;;;;;0.50;0.50;;;;;;;18.76;100.00;99087.47;5050278;28;20673;-66
2023/05/16 09:00:30;;;;;;;0.43;0.43;;;;;;;18.60;100.00;99097.25;5049965;28;20230;-65
2023/05/16 09:02:57;;;;;;;0.73;0.73;;;;;;;18.66;100.00;99090.81;5049045;28;20279;-66
2023/05/16 09:05:25;;;;;;;0.50;0.50;;;;;;;18.71;100.00;99089.53;5049435;28;20200;-65
2023/05/16 09:07:53;;;;;;;1.10;0.90;;;;;;;18.79;100.00;99079.47;5050644;28;20678;-66
2023/05/16 09:10:21;;;;;;;0.73;0.73;;;;;;;18.78;100.00;99077.81;5050567;28;20210;-65
2023/05/16 09:12:47;;;;;;;0.70;0.70;;;;;;;18.80;100.00;99075.91;5050255;28;20211;-65
2023/05/16 09:15:14;;;;;;;0.83;0.83;;;;;;;18.88;100.00;99091.81;5049156;28;20205;-66
2023/05/16 09:17:43;;;;;;;0.70;0.70;;;;;;;19.03;100.00;99094.31;5051818;28;20206;-65
2023/05/16 09:20:11;;;;;;;0.40;0.40;;;;;;;19.08;100.00;99090.44;5048203;28;20715;-66
2023/05/16 09:22:38;;;;;;;0.93;0.93;;;;;;;19.16;100.00;99082.94;5046508;28;20205;-66
2023/05/16 09:25:07;;;;;;;0.53;0.53;;;;;;;19.19;100.00;99084.50;5051593;28;20271;-65
2023/05/16 09:27:34;;;;;;;0.50;0.50;;;;;;;19.25;100.00;99086.66;5051407;28;20274;-66
2023/05/16 09:30:00;;;;;;;1.00;1.00;;;;;;;19.19;100.00;99077.50;5049247;28;20214;-65
2023/05/16 09:32:27;;;;;;;0.60;0.60;;;;;;;19.24;100.00;99095.41;5048499;28;20253;-65
2023/05/16 09:34:57;;;;;;;0.43;0.43;;;;;;;19.13;100.00;99108.28;5048184;28;20657;-66
2023/05/16 09:37:24;;;;;;;0.50;0.50;;;;;;;19.02;100.00;99079.66;5047806;28;20210;-65
2023/05/16 09:39:52;;;;;;;0.93;0.93;;;;;;;18.94;100.00;99069.78;5049854;28;20279;-65
2023/05/16 09:42:20;;;;;;;1.50;1.50;;;;;;;18.93;100.00;99049.13;5049169;28;20253;-65
2023/05/16 09:44:49;;;;;;;0.50;0.50;;;;;;;18.94;100.00;99055.97;5049296;28;20211;-65
2023/05/16 09:47:17;;;;;;;0.50;0.50;;;;;;;19.00;100.00;99065.94;5047751;28;20328;-66
2023/05/16 09:49:44;;;;;;;0.93;0.93;;;;;;;19.00;100.00;99063.34;5047029;28;20203;-65
2023/05/16 09:52:11;;;;;;;0.70;0.70;;;;;;;19.00;100.00;99063.34;5047831;28;20221;-65
2023/05/16 09:54:37;;;;;;;0.50;0.50;;;;;;;19.11;100.00;99058.22;5049415;28;20203;-66
2023/05/16 09:57:04;;;;;;;0.60;0.60;;;;;;;19.09;100.00;99049.72;5052540;28;20682;-66
2023/05/16 09:59:36;;;;;;;1.20;1.20;;;;;;;19.02;100.00;99017.28;5048342;28;20272;-66
2023/05/16 10:02:03;;;;;;;0.70;0.70;;;;;;;19.27;100.00;99051.00;5048999;28;20206;-66
2023/05/16 10:04:31;;;;;;;0.77;0.77;;;;;;;19.41;100.00;99053.47;5047972;28;20581;-66
2023/05/16 10:07:01;;;;;;;0.47;0.47;;;;;;;19.38;100.00;99051.91;5048083;28;20276;-68
2023/05/16 10:09:28;;;;;;;0.60;0.60;;;;;;;19.39;100.00;99057.91;5047111;28;20208;-68
2023/05/16 10:11:57;;;;;;;0.70;0.70;;;;;;;19.44;100.00;99055.03;5048196;28;20300;-65
2023/05/16 10:14:25;;;;;;;0.50;0.50;;;;;;;19.54;100.00;99056.88;5049295;28;20203;-65
2023/05/16 10:16:54;;;;;;;0.40;0.40;;;;;;;19.54;100.00;99062.06;5049622;28;20215;-65
2023/05/16 10:19:23;;;;;;;1.00;1.00;;;;;;;19.50;100.00;99060.63;5049542;28;20257;-65
2023/05/16 10:21:52;;;;;;;0.67;0.67;;;;;;;19.47;100.00;99055.63;5049987;28;20212;-65
2023/05/16 10:24:24;;;;;;;1.27;1.27;;;;;;;19.47;100.00;99045.25;5049691;28;20277;-65
2023/05/16 10:26:52;;;;;;;0.70;0.70;;;;;;;19.50;100.00;99029.41;5048309;28;20766;-65
2023/05/16 10:29:19;;;;;;;0.60;0.60;;;;;;;19.40;100.00;99023.22;5050273;28;20203;-64
2023/05/16 10:31:48;;;;;;;0.50;0.50;;;;;;;19.28;100.00;99013.69;5049899;28;20199;-65
2023/05/16 10:34:16;;;;;;;1.67;1.57;;;;;;;19.28;100.00;99013.69;5050526;28;20573;-65
2023/05/16 10:36:44;;;;;;;0.50;0.50;;;;;;;19.29;100.00;99023.13;5050132;28;20230;-66
2023/05/16 10:39:11;;;;;;;0.50;0.50;;;;;;;19.34;100.00;99032.25;5050856;28;20256;-65
2023/05/16 10:41:39;;;;;;;0.50;0.50;;;;;;;19.38;100.00;99014.69;5050065;28;20244;-65
2023/05/16 10:44:13;;;;;;;0.70;0.70;;;;;;;19.43;100.00;98997.00;5046142;28;20622;-65
2023/05/16 10:46:40;;;;;;;0.50;0.50;;;;;;;19.49;100.00;98982.72;5052371;28;20257;-65
2023/05/16 10:49:22;;;;;;;0.60;0.60;;;;;;;19.54;100.00;98973.66;5053656;28;20260;-65
2023/05/16 10:52:03;;;;;;;0.67;0.67;;;;;;;19.65;100.00;98976.28;5054011;28;20206;-65
2023/05/16 10:54:35;;;;;;;0.80;0.80;;;;;;;19.74;100.00;98972.19;5050660;28;20199;-65
2023/05/16 10:57:05;;;;;;;0.73;0.73;;;;;;;19.72;100.00;98967.09;5053771;28;20273;-65
2023/05/16 10:59:40;;;;;;;0.63;0.60;;;;;;;19.84;100.00;98979.16;5050728;28;20692;-65
2023/05/16 11:02:22;;;;;;;0.50;0.50;;;;;;;20.01;100.00;98983.13;5052653;28;20652;-65
2023/05/16 11:04:52;;;;;;;0.60;0.60;;;;;;;20.11;100.00;98978.88;5052624;28;20209;-65
2023/05/16 11:07:20;;;;;;;0.50;0.50;;;;;;;20.19;100.00;98986.13;5052796;28;20252;-65
2023/05/16 11:10:03;;;;;;;0.67;0.67;;;;;;;20.23;100.00;98979.72;5052322;28;20245;-65
2023/05/16 11:12:37;;;;;;;0.70;0.70;;;;;;;20.33;100.00;98958.09;5051839;28;20203;-66
2023/05/16 11:15:18;;;;;;;0.60;0.60;;;;;;;20.28;100.00;98949.00;5052313;28;20205;-65
2023/05/16 11:17:44;;;;;;;0.70;0.70;;;;;;;20.21;100.00;98955.59;5052617;28;20631;-66
2023/05/16 11:20:26;;;;;;;1.23;1.23;;;;;;;20.14;100.00;98973.44;5052295;28;20305;-66
2023/05/16 11:23:22;;;;;;;0.70;0.70;;;;;;;20.21;100.00;98979.84;5051763;28;20203;-66
2023/05/16 11:25:53;;;;;;;0.60;0.60;;;;;;;20.27;100.00;98984.59;5053101;28;20196;-65
2023/05/16 11:28:21;;;;;;;0.70;0.70;;;;;;;20.31;100.00;98980.84;5052540;28;20235;-65